Time;durP1;ratioP1;P1;durP2;ratioP2;P2;SDS_P1;SDS_P2;PMS_P1;PMS_P2;Temp;Humidity;BMP_temperature;BMP_pressure;BME280_temperature;BME280_humidity;BME280_pressure;Samples;Min_cycle;Max_cycle;Signal;HPM_P1;HPM_P2
2021/04/20 00:00:50;;;;;;;36.07;29.47;;;7.60;99.90;;;;;;5101142;28;20192;-43
2021/04/20 00:03:17;;;;;;;34.30;28.60;;;7.70;99.90;;;;;;5100728;28;20180;-42
2021/04/20 00:05:42;;;;;;;35.87;29.53;;;7.60;99.90;;;;;;5099011;28;20427;-41
2021/04/20 00:08:08;;;;;;;35.33;29.90;;;7.70;99.90;;;;;;5091546;28;20427;-43
2021/04/20 00:10:34;;;;;;;38.97;29.57;;;7.60;99.90;;;;;;5081233;28;20191;-42
2021/04/20 00:13:01;;;;;;;30.30;23.83;;;7.70;99.90;;;;;;5080071;28;20300;-41
2021/04/20 00:15:29;;;;;;;28.90;19.10;;;7.80;99.90;;;;;;5082528;28;20504;-43
2021/04/20 00:17:56;;;;;;;25.40;19.70;;;8.20;99.90;;;;;;5082932;28;20473;-44
2021/04/20 00:20:22;;;;;;;37.83;29.93;;;8.70;99.90;;;;;;5100715;28;20487;-42
2021/04/20 00:22:49;;;;;;;30.93;26.43;;;8.80;99.90;;;;;;5099919;28;20484;-42
2021/04/20 00:25:15;;;;;;;30.90;27.50;;;8.80;99.90;;;;;;5100683;28;20422;-42
2021/04/20 00:27:41;;;;;;;29.90;25.37;;;8.70;99.90;;;;;;5100612;28;20685;-42
2021/04/20 00:30:09;;;;;;;35.00;28.67;;;8.60;99.90;;;;;;5100268;28;20430;-42
2021/04/20 00:32:35;;;;;;;33.60;27.77;;;8.40;99.90;;;;;;5100613;28;20497;-41
2021/04/20 00:35:02;;;;;;;30.77;25.17;;;8.30;99.90;;;;;;5100129;28;20434;-42
2021/04/20 00:37:28;;;;;;;29.43;25.73;;;8.20;99.90;;;;;;5100518;28;20497;-43
2021/04/20 00:39:54;;;;;;;32.00;26.07;;;8.20;99.90;;;;;;5100313;28;20524;-42
2021/04/20 00:42:20;;;;;;;33.80;27.00;;;8.00;99.90;;;;;;5100202;28;20238;-43
2021/04/20 00:44:46;;;;;;;32.77;27.50;;;8.00;99.90;;;;;;5099986;28;20168;-43
2021/04/20 00:47:11;;;;;;;32.17;27.07;;;7.90;99.90;;;;;;5100310;28;20433;-43
2021/04/20 00:49:37;;;;;;;31.60;25.77;;;7.80;99.90;;;;;;5082230;28;20187;-43
2021/04/20 00:52:03;;;;;;;40.20;27.50;;;7.80;99.90;;;;;;5099998;28;20215;-42
2021/04/20 00:54:29;;;;;;;31.67;26.03;;;7.70;99.90;;;;;;5099558;28;20176;-42
2021/04/20 00:56:55;;;;;;;33.50;26.23;;;7.60;99.90;;;;;;5099904;28;20518;-41
2021/04/20 00:59:21;;;;;;;30.87;26.33;;;7.60;99.90;;;;;;5100135;28;20176;-43
2021/04/20 01:01:47;;;;;;;33.23;27.60;;;7.50;99.90;;;;;;5100323;28;20207;-42
2021/04/20 01:04:15;;;;;;;32.97;27.97;;;7.40;99.90;;;;;;5100002;28;20430;-42
2021/04/20 01:06:45;;;;;;;32.30;26.97;;;7.40;99.90;;;;;;5099805;28;20709;-39
2021/04/20 01:09:11;;;;;;;33.40;26.23;;;7.30;99.90;;;;;;5099992;28;20418;-42
2021/04/20 01:11:39;;;;;;;34.53;28.53;;;7.20;99.90;;;;;;5082081;28;20531;-42
2021/04/20 01:14:06;;;;;;;33.20;27.53;;;7.10;99.90;;;;;;5099501;28;20501;-41
2021/04/20 01:16:36;;;;;;;32.03;27.60;;;7.00;99.90;;;;;;5099489;28;20427;-40
2021/04/20 01:19:03;;;;;;;29.60;25.10;;;7.00;99.90;;;;;;5098960;28;20872;-41
2021/04/20 01:21:29;;;;;;;32.40;26.63;;;6.90;99.90;;;;;;5081860;28;20539;-42
2021/04/20 01:24:09;;;;;;;34.53;28.60;;;6.80;99.90;;;;;;5081883;28;20844;-41
2021/04/20 01:26:38;;;;;;;32.20;26.27;;;6.70;99.90;;;;;;5099453;28;20428;-42
2021/04/20 01:29:05;;;;;;;33.73;27.90;;;6.70;99.90;;;;;;5081857;28;20493;-42
2021/04/20 01:31:33;;;;;;;36.57;27.80;;;6.60;99.90;;;;;;5099640;28;20456;-42
2021/04/20 01:33:59;;;;;;;32.27;27.03;;;6.50;99.90;;;;;;5099451;28;20406;-42
2021/04/20 01:36:26;;;;;;;34.00;27.13;;;6.40;99.90;;;;;;5099292;28;20430;-43
2021/04/20 01:38:54;;;;;;;33.83;27.50;;;6.40;99.90;;;;;;5099312;28;20187;-41
2021/04/20 01:41:21;;;;;;;30.70;25.07;;;6.30;99.90;;;;;;5099535;28;20434;-41
2021/04/20 01:43:48;;;;;;;35.63;28.57;;;6.20;99.90;;;;;;5099458;28;20479;-40
2021/04/20 01:46:15;;;;;;;33.97;27.00;;;6.20;99.90;;;;;;5099052;28;20705;-41
2021/04/20 01:48:42;;;;;;;31.37;25.50;;;6.10;99.90;;;;;;5099055;28;20445;-40
2021/04/20 01:51:08;;;;;;;30.43;25.47;;;6.10;99.90;;;;;;5099489;28;20437;-42
2021/04/20 01:53:33;;;;;;;32.17;26.87;;;6.00;99.90;;;;;;5098540;28;20462;-42
2021/04/20 01:56:01;;;;;;;35.73;28.07;;;5.90;99.90;;;;;;5098971;28;20191;-43
2021/04/20 01:58:29;;;;;;;38.40;27.50;;;5.80;99.90;;;;;;5098652;28;20178;-43
2021/04/20 02:00:55;;;;;;;34.97;29.17;;;5.80;99.90;;;;;;5099417;28;20435;-43
2021/04/20 02:03:25;;;;;;;33.77;27.57;;;5.70;99.90;;;;;;5098502;28;20418;-42
2021/04/20 02:05:51;;;;;;;29.67;25.07;;;5.70;99.90;;;;;;5080069;28;20886;-43
2021/04/20 02:08:18;;;;;;;31.40;26.70;;;5.60;99.90;;;;;;5080448;28;20419;-43
2021/04/20 02:10:44;;;;;;;36.40;28.60;;;5.60;99.90;;;;;;5098835;28;20469;-41
2021/04/20 02:13:11;;;;;;;32.87;27.07;;;5.50;99.90;;;;;;5098497;28;20458;-43
2021/04/20 02:15:36;;;;;;;32.57;26.60;;;5.40;99.90;;;;;;5080916;28;20430;-43
2021/04/20 02:18:04;;;;;;;39.00;28.87;;;5.40;99.90;;;;;;5098772;28;20557;-42
2021/04/20 02:20:30;;;;;;;39.30;30.23;;;5.40;99.90;;;;;;5098633;28;20223;-42
2021/04/20 02:22:56;;;;;;;35.57;27.97;;;5.30;99.90;;;;;;5080530;28;20473;-43
2021/04/20 02:25:23;;;;;;;41.93;32.20;;;5.20;99.90;;;;;;5098485;28;20184;-43
2021/04/20 02:27:49;;;;;;;37.10;29.70;;;5.20;99.90;;;;;;5079639;28;20426;-42
2021/04/20 02:30:16;;;;;;;36.30;29.10;;;5.20;99.90;;;;;;5098361;28;20442;-43
2021/04/20 02:32:42;;;;;;;40.37;29.93;;;5.10;99.90;;;;;;5098200;28;20464;-43
2021/04/20 02:35:11;;;;;;;40.30;30.57;;;5.10;99.90;;;;;;5080415;28;20437;-43
2021/04/20 02:37:37;;;;;;;37.63;29.67;;;5.00;99.90;;;;;;5097262;28;20836;-40
2021/04/20 02:40:11;;;;;;;35.67;28.10;;;5.00;99.90;;;;;;5098074;28;20469;-41
2021/04/20 02:42:38;;;;;;;36.30;29.87;;;4.90;99.90;;;;;;5097789;28;20426;-42
2021/04/20 02:45:06;;;;;;;40.77;29.90;;;4.90;99.90;;;;;;5097983;28;20778;-43
2021/04/20 02:47:36;;;;;;;44.77;32.60;;;4.90;99.90;;;;;;5098095;28;20429;-42
2021/04/20 02:50:14;;;;;;;40.60;29.00;;;4.80;99.90;;;;;;5098125;28;20810;-42
2021/04/20 02:52:41;;;;;;;38.73;29.23;;;4.80;99.90;;;;;;5097865;28;20466;-42
2021/04/20 02:55:09;;;;;;;38.07;28.70;;;4.70;99.90;;;;;;5098029;28;20487;-40
2021/04/20 02:57:39;;;;;;;39.47;30.70;;;4.70;99.90;;;;;;5097864;28;20759;-42
2021/04/20 03:00:07;;;;;;;39.53;29.87;;;4.70;99.90;;;;;;5080087;28;20525;-43
2021/04/20 03:02:36;;;;;;;40.73;28.60;;;4.60;99.90;;;;;;5098147;28;20431;-41
2021/04/20 03:05:02;;;;;;;38.40;29.60;;;4.50;99.90;;;;;;5080386;28;20441;-43
2021/04/20 03:07:28;;;;;;;38.07;28.33;;;4.50;99.90;;;;;;5098097;28;20512;-43
2021/04/20 03:09:55;;;;;;;33.60;28.17;;;4.50;99.90;;;;;;5080530;28;20926;-41
2021/04/20 03:12:21;;;;;;;39.07;29.60;;;4.40;99.90;;;;;;5080214;28;20472;-43
2021/04/20 03:14:48;;;;;;;37.13;28.80;;;4.40;99.90;;;;;;5098111;28;20517;-42
2021/04/20 03:17:14;;;;;;;36.40;29.33;;;4.30;99.90;;;;;;5080868;28;20417;-41
2021/04/20 03:19:39;;;;;;;37.73;29.43;;;4.30;99.90;;;;;;5101977;28;20410;-43
2021/04/20 03:22:06;;;;;;;39.30;27.93;;;4.30;99.90;;;;;;5102326;28;20472;-43
2021/04/20 03:24:31;;;;;;;37.83;29.03;;;4.30;99.90;;;;;;5101846;28;20184;-42
2021/04/20 03:26:58;;;;;;;36.20;27.20;;;4.30;99.90;;;;;;5102301;28;20428;-42
2021/04/20 03:29:24;;;;;;;39.60;29.40;;;4.20;99.90;;;;;;5083505;28;20176;-41
2021/04/20 03:31:50;;;;;;;35.97;27.80;;;4.20;99.90;;;;;;5083866;28;20724;-41
2021/04/20 03:34:24;;;;;;;38.10;28.77;;;4.20;99.90;;;;;;5101052;28;20689;-42
2021/04/20 03:37:03;;;;;;;38.30;29.87;;;4.20;99.90;;;;;;5084025;28;20507;-43
2021/04/20 03:39:31;;;;;;;42.47;30.63;;;4.10;99.90;;;;;;5083889;28;20414;-43
2021/04/20 03:42:07;;;;;;;46.20;31.70;;;4.20;99.90;;;;;;5083467;28;20475;-42
2021/04/20 03:44:43;;;;;;;46.37;31.83;;;4.20;99.90;;;;;;5101378;28;20426;-40
2021/04/20 03:47:38;;;;;;;42.37;31.03;;;4.20;99.90;;;;;;5083815;28;20414;-41
2021/04/20 03:50:08;;;;;;;50.97;35.57;;;4.20;99.90;;;;;;5081165;28;20725;-43
2021/04/20 03:52:47;;;;;;;43.90;31.77;;;4.30;99.90;;;;;;5101234;28;20493;-43
2021/04/20 03:55:16;;;;;;;55.63;36.90;;;4.30;99.90;;;;;;5101210;28;20501;-43
2021/04/20 03:57:45;;;;;;;48.10;32.30;;;4.20;99.90;;;;;;5101033;28;20421;-42
2021/04/20 04:00:13;;;;;;;39.40;30.50;;;4.30;99.90;;;;;;5081976;28;20512;-38
2021/04/20 04:02:41;;;;;;;41.17;30.03;;;4.30;99.90;;;;;;5099219;28;20423;-41
2021/04/20 04:05:10;;;;;;;53.33;34.10;;;4.30;99.90;;;;;;5100176;28;20434;-40
2021/04/20 04:07:37;;;;;;;62.50;39.13;;;4.30;99.90;;;;;;5081380;28;20422;-42
2021/04/20 04:10:05;;;;;;;53.87;33.30;;;4.30;99.90;;;;;;5097205;28;20441;-43
2021/04/20 04:12:35;;;;;;;59.27;35.33;;;4.30;99.90;;;;;;5079807;28;20561;-40
2021/04/20 04:15:02;;;;;;;58.33;38.23;;;4.30;99.90;;;;;;5081458;28;20434;-42
2021/04/20 04:17:29;;;;;;;62.10;39.57;;;4.30;99.90;;;;;;5098774;28;20496;-43
2021/04/20 04:19:54;;;;;;;59.80;37.87;;;4.30;99.90;;;;;;5081340;28;20947;-43
2021/04/20 04:22:28;;;;;;;59.07;40.13;;;4.30;99.90;;;;;;5081184;28;20513;-41
2021/04/20 04:24:56;;;;;;;55.63;36.33;;;4.40;99.90;;;;;;5100000;28;20191;-41
2021/04/20 04:27:23;;;;;;;62.30;40.10;;;4.40;99.90;;;;;;5082868;28;20414;-43
2021/04/20 04:29:52;;;;;;;57.20;38.47;;;4.40;99.90;;;;;;5080789;28;20438;-40
2021/04/20 04:32:20;;;;;;;58.90;36.07;;;4.50;99.90;;;;;;5082567;28;20462;-43
2021/04/20 04:34:47;;;;;;;56.63;38.17;;;4.50;99.90;;;;;;5066145;28;20509;-43
2021/04/20 04:37:15;;;;;;;49.13;34.93;;;4.50;99.90;;;;;;5083015;28;20418;-40
2021/04/20 04:39:44;;;;;;;49.03;35.10;;;4.60;99.90;;;;;;5100607;28;20406;-42
2021/04/20 04:42:10;;;;;;;56.67;36.23;;;4.70;99.90;;;;;;5082138;28;20422;-41
2021/04/20 04:44:37;;;;;;;57.70;35.40;;;4.70;99.90;;;;;;5100494;28;20418;-43
2021/04/20 04:47:05;;;;;;;47.07;34.10;;;4.70;99.90;;;;;;5100190;28;20426;-43
2021/04/20 04:49:32;;;;;;;43.60;31.30;;;4.70;99.90;;;;;;5100063;28;20415;-42
2021/04/20 04:51:58;;;;;;;47.67;34.20;;;4.70;99.90;;;;;;5081242;28;20462;-41
2021/04/20 04:54:24;;;;;;;44.30;32.60;;;4.70;99.90;;;;;;5099947;28;20677;-40
2021/04/20 04:56:51;;;;;;;37.60;29.10;;;4.70;99.90;;;;;;5081826;28;20433;-42
2021/04/20 04:59:18;;;;;;;38.50;30.33;;;4.80;99.90;;;;;;5081677;28;20414;-43
2021/04/20 05:01:45;;;;;;;38.80;30.90;;;4.80;99.90;;;;;;5081941;28;20437;-43
2021/04/20 05:04:12;;;;;;;37.03;30.00;;;4.80;99.90;;;;;;5099505;28;20469;-43
2021/04/20 05:06:46;;;;;;;36.20;30.17;;;4.80;99.90;;;;;;5099489;28;20418;-42
2021/04/20 05:09:13;;;;;;;41.03;29.57;;;4.90;99.90;;;;;;5099227;28;20480;-43
2021/04/20 05:11:43;;;;;;;39.90;31.03;;;4.90;99.90;;;;;;5098541;28;20496;-42
2021/04/20 05:14:11;;;;;;;38.60;29.47;;;5.00;99.90;;;;;;5081159;28;20415;-41
2021/04/20 05:16:37;;;;;;;39.33;28.87;;;5.00;99.90;;;;;;5099373;28;20430;-40
2021/04/20 05:19:03;;;;;;;38.60;29.67;;;5.00;99.90;;;;;;5080932;28;20478;-41
2021/04/20 05:21:30;;;;;;;33.23;27.67;;;5.00;99.90;;;;;;5081472;28;20442;-43
2021/04/20 05:23:57;;;;;;;37.43;29.07;;;5.10;99.90;;;;;;5080284;28;20419;-43
2021/04/20 05:26:27;;;;;;;35.10;27.90;;;5.10;99.90;;;;;;5098551;28;20808;-43
2021/04/20 05:28:53;;;;;;;30.07;26.70;;;5.20;99.90;;;;;;5097820;28;20509;-41
2021/04/20 05:31:19;;;;;;;30.40;26.07;;;5.20;99.90;;;;;;5098687;28;20836;-43
2021/04/20 05:33:45;;;;;;;29.70;26.30;;;5.20;99.90;;;;;;5098390;28;20470;-43
2021/04/20 05:36:11;;;;;;;30.40;25.77;;;5.30;99.90;;;;;;5084934;28;20439;-42
2021/04/20 05:38:37;;;;;;;32.33;27.20;;;5.30;99.90;;;;;;5077801;28;20188;-42
2021/04/20 05:41:04;;;;;;;29.77;26.40;;;5.40;99.90;;;;;;5077655;28;20469;-41
2021/04/20 05:43:30;;;;;;;29.90;26.23;;;5.50;99.90;;;;;;5077967;28;20429;-43
2021/04/20 05:45:56;;;;;;;27.13;24.33;;;5.60;99.90;;;;;;5060283;28;21003;-41
2021/04/20 05:48:22;;;;;;;30.10;26.90;;;5.80;99.90;;;;;;5077407;28;20419;-43
2021/04/20 05:50:51;;;;;;;29.63;26.27;;;5.80;99.90;;;;;;5059511;28;20442;-43
2021/04/20 05:53:18;;;;;;;28.47;25.57;;;5.90;99.90;;;;;;5060513;28;20558;-43
2021/04/20 05:55:44;;;;;;;36.63;24.67;;;6.00;99.90;;;;;;5078145;28;20435;-42
2021/04/20 05:58:10;;;;;;;29.83;25.00;;;6.10;99.90;;;;;;5077400;28;20423;-42
2021/04/20 06:00:36;;;;;;;27.83;23.30;;;6.20;99.90;;;;;;5059940;28;20534;-42
2021/04/20 06:03:02;;;;;;;26.70;23.87;;;6.30;99.90;;;;;;5077924;28;20428;-39
2021/04/20 06:05:29;;;;;;;27.50;24.30;;;6.40;99.90;;;;;;5077928;28;20439;-40
2021/04/20 06:07:59;;;;;;;30.03;26.23;;;6.50;99.90;;;;;;5077830;28;20420;-40
2021/04/20 06:10:25;;;;;;;30.17;26.13;;;6.60;99.90;;;;;;5076871;28;20419;-40
2021/04/20 06:12:51;;;;;;;32.67;27.43;;;6.70;99.90;;;;;;5067360;28;20618;-40
2021/04/20 06:15:22;;;;;;;32.50;27.50;;;6.90;99.90;;;;;;5079296;28;20438;-44
2021/04/20 06:17:48;;;;;;;36.07;24.60;;;7.00;99.90;;;;;;5079725;28;20290;-43
2021/04/20 06:20:16;;;;;;;27.97;25.03;;;7.00;99.90;;;;;;5078744;28;20450;-41
2021/04/20 06:22:46;;;;;;;27.60;24.77;;;7.10;99.90;;;;;;5080255;28;20444;-41
2021/04/20 06:25:14;;;;;;;28.10;25.00;;;7.20;99.90;;;;;;5081082;28;20457;-43
2021/04/20 06:27:41;;;;;;;36.93;28.70;;;7.30;99.90;;;;;;5098523;28;20410;-43
2021/04/20 06:30:09;;;;;;;31.10;27.43;;;7.40;99.90;;;;;;5098395;28;20533;-43
2021/04/20 06:32:37;;;;;;;32.03;27.83;;;7.50;99.90;;;;;;5097419;28;20458;-43
2021/04/20 06:35:04;;;;;;;34.07;28.40;;;7.60;99.90;;;;;;5097344;28;20427;-41
2021/04/20 06:37:36;;;;;;;31.47;28.00;;;7.70;99.90;;;;;;5096961;28;20422;-41
2021/04/20 06:40:07;;;;;;;32.43;27.10;;;7.90;99.90;;;;;;5062070;28;21073;-43
2021/04/20 06:42:49;;;;;;;225.10;59.43;;;8.10;99.90;;;;;;5096154;28;20466;-42
2021/04/20 06:45:23;;;;;;;128.97;44.93;;;8.20;99.90;;;;;;5077623;28;20453;-43
2021/04/20 06:48:18;;;;;;;124.60;41.30;;;8.40;99.90;;;;;;5078820;28;20509;-38
2021/04/20 06:50:44;;;;;;;92.07;35.27;;;8.70;99.90;;;;;;5097298;28;20430;-42
2021/04/20 06:53:18;;;;;;;32.77;16.90;;;9.00;99.70;;;;;;5079362;28;20458;-43
2021/04/20 06:55:53;;;;;;;35.47;23.23;;;9.40;99.90;;;;;;5079853;28;20516;-40
2021/04/20 06:58:39;;;;;;;36.03;27.47;;;10.00;99.90;;;;;;5079282;28;20419;-42
2021/04/20 07:01:10;;;;;;;32.30;27.57;;;10.50;98.00;;;;;;5097457;28;20422;-43
2021/04/20 07:03:58;;;;;;;29.60;26.00;;;10.80;96.20;;;;;;5097622;28;20669;-42
2021/04/20 07:06:35;;;;;;;30.90;26.60;;;11.00;95.00;;;;;;5032048;28;20439;-43
2021/04/20 07:09:09;;;;;;;29.13;26.03;;;11.30;94.40;;;;;;5097871;28;20432;-43
2021/04/20 07:11:35;;;;;;;29.53;26.37;;;11.50;94.30;;;;;;5078638;28;21054;-42
2021/04/20 07:14:03;;;;;;;29.40;26.20;;;11.60;92.90;;;;;;5077364;28;20682;-42
2021/04/20 07:16:32;;;;;;;28.17;24.93;;;11.50;92.70;;;;;;5076581;28;20430;-42
2021/04/20 07:19:09;;;;;;;28.70;25.60;;;11.40;92.80;;;;;;5094179;28;20485;-42
2021/04/20 07:22:00;;;;;;;32.67;27.40;;;11.50;93.80;;;;;;5095507;28;20488;-41
2021/04/20 07:24:46;;;;;;;33.07;28.33;;;11.60;93.50;;;;;;5095918;28;20398;-40
2021/04/20 07:27:53;;;;;;;31.90;25.40;;;11.60;93.20;;;;;;5096208;28;20457;-39
2021/04/20 07:30:30;;;;;;;31.37;27.40;;;11.90;94.00;;;;;;5079565;28;20507;-41
2021/04/20 07:33:08;;;;;;;31.23;27.93;;;12.30;93.60;;;;;;5097050;28;20476;-40
2021/04/20 07:35:37;;;;;;;29.37;26.37;;;11.90;93.90;;;;;;5079316;28;20430;-41
2021/04/20 07:38:35;;;;;;;31.47;28.17;;;12.30;93.30;;;;;;5097213;28;20417;-41
2021/04/20 07:41:35;;;;;;;27.60;24.10;;;12.50;93.50;;;;;;5096204;28;20470;-40
2021/04/20 07:44:19;;;;;;;27.90;24.30;;;12.90;92.70;;;;;;5096599;28;20453;-41
2021/04/20 07:46:52;;;;;;;27.80;24.90;;;13.10;92.00;;;;;;5096420;28;20765;-40
2021/04/20 07:49:57;;;;;;;27.57;24.67;;;13.60;91.30;;;;;;5052972;28;20576;-40
2021/04/20 07:52:38;;;;;;;25.40;22.53;;;13.40;86.80;;;;;;4992848;28;20470;-41
2021/04/20 07:55:20;;;;;;;27.13;22.67;;;13.50;88.30;;;;;;5050310;28;20431;-41
2021/04/20 07:57:54;;;;;;;28.43;25.43;;;13.50;87.10;;;;;;5075835;28;20450;-40
2021/04/20 08:00:34;;;;;;;26.47;23.90;;;13.60;89.30;;;;;;5058695;28;20880;-42
2021/04/20 08:03:38;;;;;;;24.60;21.90;;;13.70;86.50;;;;;;5058431;28;20418;-42
2021/04/20 08:06:30;;;;;;;23.17;17.03;;;14.20;87.70;;;;;;5062460;28;20487;-41
2021/04/20 08:09:07;;;;;;;21.43;19.23;;;14.90;88.50;;;;;;5090377;28;20418;-41
2021/04/20 08:11:41;;;;;;;18.13;14.90;;;15.20;87.80;;;;;;5099809;28;20437;-42
2021/04/20 08:14:25;;;;;;;17.47;15.73;;;15.40;87.50;;;;;;5098902;28;20410;-42
2021/04/20 08:17:17;;;;;;;24.03;21.23;;;15.60;87.90;;;;;;5081987;28;20480;-41
2021/04/20 08:19:58;;;;;;;25.90;23.20;;;15.70;84.20;;;;;;5083082;28;20422;-41
2021/04/20 08:22:26;;;;;;;28.27;25.47;;;15.40;81.00;;;;;;5082893;28;20487;-40
2021/04/20 08:24:54;;;;;;;26.00;23.20;;;15.10;80.00;;;;;;5081812;28;20417;-40
2021/04/20 08:27:36;;;;;;;24.97;22.37;;;14.90;81.30;;;;;;5099945;28;20505;-40
2021/04/20 08:30:16;;;;;;;28.07;25.13;;;14.70;81.60;;;;;;5082181;28;20430;-42
2021/04/20 08:32:49;;;;;;;26.53;22.80;;;14.70;82.50;;;;;;5082301;28;20736;-40
2021/04/20 08:35:18;;;;;;;26.57;23.90;;;14.80;82.30;;;;;;5082030;28;20521;-40
2021/04/20 08:38:01;;;;;;;26.17;23.57;;;14.90;81.60;;;;;;5099353;28;20411;-42
2021/04/20 08:40:44;;;;;;;27.40;24.43;;;14.80;81.40;;;;;;5100228;28;20433;-42
2021/04/20 08:43:35;;;;;;;26.80;24.10;;;14.30;80.90;;;;;;5100179;28;20422;-42
2021/04/20 08:46:15;;;;;;;28.93;25.57;;;14.10;82.30;;;;;;5082199;28;20437;-41
2021/04/20 08:49:17;;;;;;;26.50;23.77;;;14.00;82.00;;;;;;5100106;28;20467;-42
2021/04/20 08:52:27;;;;;;;27.10;24.20;;;14.00;82.80;;;;;;5100100;28;20420;-42
2021/04/20 08:55:11;;;;;;;24.63;22.13;;;14.00;83.00;;;;;;5005328;28;20487;-43
2021/04/20 08:58:15;;;;;;;26.97;24.07;;;14.20;82.90;;;;;;5099833;28;20406;-42
2021/04/20 09:01:05;;;;;;;25.30;22.50;;;14.30;82.10;;;;;;5100414;28;20516;-41
2021/04/20 09:03:56;;;;;;;24.83;22.23;;;14.50;81.70;;;;;;5099252;28;20460;-41
2021/04/20 09:06:55;;;;;;;24.53;22.00;;;14.60;81.30;;;;;;5098538;28;20439;-39
2021/04/20 09:09:23;;;;;;;25.37;21.33;;;14.80;81.20;;;;;;5098036;28;20449;-40
2021/04/20 09:12:12;;;;;;;23.50;21.00;;;14.70;80.40;;;;;;5081621;28;20433;-42
2021/04/20 09:14:40;;;;;;;26.57;23.60;;;14.90;80.10;;;;;;5080911;28;20750;-42
2021/04/20 09:17:10;;;;;;;22.73;20.27;;;15.40;79.60;;;;;;5062794;28;20999;-41
2021/04/20 09:19:58;;;;;;;23.27;21.00;;;15.80;77.90;;;;;;5098199;28;20737;-42
2021/04/20 09:22:59;;;;;;;22.57;20.27;;;16.20;75.90;;;;;;5098281;28;20728;-41
2021/04/20 09:25:29;;;;;;;22.73;20.60;;;16.40;74.30;;;;;;5077053;28;20442;-42
2021/04/20 09:28:20;;;;;;;21.83;19.73;;;16.50;72.80;;;;;;5080657;28;20426;-41
2021/04/20 09:31:02;;;;;;;20.73;18.73;;;16.50;72.00;;;;;;5098694;28;20437;-41
2021/04/20 09:34:03;;;;;;;20.53;18.43;;;16.70;71.30;;;;;;5079314;28;21065;-42
2021/04/20 09:36:30;;;;;;;20.33;18.20;;;16.90;69.30;;;;;;4979123;28;20503;-42
2021/04/20 09:38:57;;;;;;;22.20;19.07;;;16.90;69.00;;;;;;5045595;28;20479;-42
2021/04/20 09:41:29;;;;;;;21.43;18.43;;;17.00;68.40;;;;;;5048553;28;20435;-42
2021/04/20 09:44:22;;;;;;;19.83;17.97;;;17.00;67.90;;;;;;5065226;28;20434;-42
2021/04/20 09:46:48;;;;;;;18.87;17.03;;;17.50;68.40;;;;;;5079001;28;20430;-44
2021/04/20 09:49:39;;;;;;;17.40;15.80;;;18.40;67.60;;;;;;5097380;28;20411;-41
2021/04/20 09:52:23;;;;;;;17.43;15.87;;;19.10;62.80;;;;;;5099199;28;20295;-39
2021/04/20 09:54:57;;;;;;;16.30;14.83;;;19.70;59.70;;;;;;5080974;28;20426;-42
2021/04/20 09:57:29;;;;;;;16.70;14.97;;;21.00;57.60;;;;;;5080376;28;20415;-43
2021/04/20 10:00:04;;;;;;;17.00;15.50;;;22.40;54.30;;;;;;5079060;28;20494;-43
2021/04/20 10:02:53;;;;;;;15.70;14.20;;;22.50;48.50;;;;;;5058251;28;20756;-43
2021/04/20 10:05:37;;;;;;;13.13;11.90;;;22.70;48.20;;;;;;5095543;28;20427;-42
2021/04/20 10:08:22;;;;;;;15.33;13.93;;;22.50;47.50;;;;;;5097684;28;20740;-44
2021/04/20 10:10:48;;;;;;;14.10;12.80;;;21.80;47.20;;;;;;5097204;28;20427;-43
2021/04/20 10:13:36;;;;;;;13.30;12.17;;;22.70;47.40;;;;;;5097307;28;20458;-42
2021/04/20 10:16:10;;;;;;;12.33;11.33;;;23.90;45.10;;;;;;5096284;28;20722;-43
2021/04/20 10:18:50;;;;;;;12.40;11.40;;;25.30;43.20;;;;;;5061242;28;20473;-43
2021/04/20 10:21:40;;;;;;;13.93;12.80;;;26.10;42.40;;;;;;5095506;28;20429;-40
2021/04/20 10:24:22;;;;;;;14.60;13.40;;;27.00;40.50;;;;;;5096001;28;20417;-46
2021/04/20 10:27:14;;;;;;;9.23;8.47;;;27.70;38.50;;;;;;5076724;28;20433;-42
2021/04/20 10:29:49;;;;;;;11.33;10.33;;;28.80;35.80;;;;;;5079455;28;20845;-43
2021/04/20 10:32:23;;;;;;;12.67;11.67;;;29.80;34.80;;;;;;5079288;28;20472;-42
2021/04/20 10:34:53;;;;;;;12.27;11.27;;;31.00;33.90;;;;;;5096343;28;20429;-44
2021/04/20 10:37:21;;;;;;;11.07;10.03;;;31.00;33.30;;;;;;5080371;28;20395;-45
2021/04/20 10:39:49;;;;;;;12.70;11.70;;;30.70;33.40;;;;;;5079080;28;20424;-45
2021/04/20 10:42:15;;;;;;;12.10;10.93;;;30.70;33.50;;;;;;5079318;28;20422;-45
2021/04/20 10:44:43;;;;;;;11.60;10.67;;;31.30;32.00;;;;;;5096935;28;20470;-45
2021/04/20 10:47:09;;;;;;;11.87;10.97;;;31.30;31.20;;;;;;5075206;28;20723;-45
2021/04/20 10:49:35;;;;;;;11.27;10.40;;;31.40;31.00;;;;;;5079156;28;20403;-45
2021/04/20 10:52:09;;;;;;;8.37;7.67;;;31.20;31.80;;;;;;5097323;28;20945;-45
2021/04/20 10:54:38;;;;;;;11.20;10.40;;;30.90;31.10;;;;;;5098226;28;20453;-45
2021/04/20 10:57:05;;;;;;;11.70;10.80;;;31.10;30.80;;;;;;5097526;28;20441;-44
2021/04/20 10:59:34;;;;;;;10.73;9.93;;;31.80;30.60;;;;;;5097022;28;20388;-44
2021/04/20 11:02:26;;;;;;;8.63;8.03;;;32.40;29.90;;;;;;5077610;28;20871;-42
2021/04/20 11:04:54;;;;;;;8.87;8.23;;;32.70;30.00;;;;;;5096160;28;20434;-43
2021/04/20 11:07:22;;;;;;;8.60;7.90;;;33.50;28.70;;;;;;5079245;28;20403;-44
2021/04/20 11:10:04;;;;;;;7.83;7.30;;;34.00;28.70;;;;;;5096669;28;20414;-44
2021/04/20 11:12:31;;;;;;;7.60;7.00;;;33.70;28.20;;;;;;5078328;28;20441;-44
2021/04/20 11:14:57;;;;;;;8.83;8.10;;;33.00;28.60;;;;;;5096784;28;20808;-43
2021/04/20 11:17:29;;;;;;;8.07;7.43;;;32.60;28.80;;;;;;5096326;28;20864;-44
2021/04/20 11:20:01;;;;;;;8.60;8.00;;;33.00;28.80;;;;;;5096840;28;20437;-44
2021/04/20 11:22:38;;;;;;;8.93;8.33;;;33.00;28.00;;;;;;5097012;28;20829;-44
2021/04/20 11:25:11;;;;;;;8.33;7.70;;;32.10;28.90;;;;;;5096814;28;20425;-44
2021/04/20 11:27:37;;;;;;;8.27;7.57;;;31.50;28.20;;;;;;5098126;28;20538;-44
2021/04/20 11:30:14;;;;;;;8.60;7.90;;;31.00;29.00;;;;;;5079678;28;20381;-44
2021/04/20 11:32:51;;;;;;;7.37;6.87;;;31.40;28.70;;;;;;5080277;28;20475;-44
2021/04/20 11:35:20;;;;;;;8.27;7.67;;;32.10;28.70;;;;;;5079263;28;20422;-43
2021/04/20 11:37:47;;;;;;;7.60;6.93;;;31.90;28.40;;;;;;5079997;28;20474;-44
2021/04/20 11:40:32;;;;;;;7.33;6.73;;;31.50;28.70;;;;;;5076027;28;20749;-44
2021/04/20 11:43:02;;;;;;;8.73;8.03;;;30.50;28.70;;;;;;5063835;28;20741;-44
2021/04/20 11:45:29;;;;;;;8.53;7.83;;;29.80;28.60;;;;;;5081220;28;20488;-44
2021/04/20 11:48:09;;;;;;;6.80;6.30;;;29.00;29.90;;;;;;5062768;28;20480;-44
2021/04/20 11:50:37;;;;;;;7.17;6.67;;;28.30;30.20;;;;;;5082150;28;20432;-44
2021/04/20 11:53:05;;;;;;;6.70;6.20;;;28.40;30.60;;;;;;5100133;28;20548;-44
2021/04/20 11:55:44;;;;;;;9.37;8.57;;;27.90;30.20;;;;;;5100923;28;20398;-44
2021/04/20 11:58:32;;;;;;;8.23;7.53;;;27.00;30.00;;;;;;5099549;28;20660;-44
2021/04/20 12:01:25;;;;;;;9.40;8.70;;;25.90;30.10;;;;;;5099495;28;20461;-44
2021/04/20 12:03:54;;;;;;;7.97;7.27;;;25.50;31.20;;;;;;5100866;28;20429;-44
2021/04/20 12:06:23;;;;;;;7.60;6.90;;;25.80;31.40;;;;;;5081358;28;20441;-44
2021/04/20 12:08:54;;;;;;;7.57;6.97;;;26.40;31.40;;;;;;5081388;28;20712;-44
2021/04/20 12:11:27;;;;;;;8.53;7.70;;;26.50;31.40;;;;;;5098389;28;20432;-44
2021/04/20 12:13:54;;;;;;;9.47;8.70;;;26.20;31.20;;;;;;5064618;28;20564;-43
2021/04/20 12:16:20;;;;;;;12.93;11.80;;;25.20;31.80;;;;;;5098719;28;20503;-43
2021/04/20 12:18:48;;;;;;;12.90;11.83;;;24.80;33.40;;;;;;5079668;28;20469;-44
2021/04/20 12:21:25;;;;;;;14.37;13.17;;;23.60;33.80;;;;;;5098123;28;20438;-43
2021/04/20 12:23:54;;;;;;;11.23;10.13;;;22.10;34.90;;;;;;5081104;28;20509;-43
2021/04/20 12:26:20;;;;;;;12.77;11.67;;;22.40;36.00;;;;;;5098674;28;20430;-43
2021/04/20 12:28:51;;;;;;;12.90;11.70;;;22.10;35.30;;;;;;5098096;28;20515;-43
2021/04/20 12:31:26;;;;;;;13.30;12.10;;;22.40;35.30;;;;;;5082522;28;20596;-43
2021/04/20 12:33:51;;;;;;;11.30;10.30;;;22.80;34.50;;;;;;5099172;28;20449;-43
2021/04/20 12:36:26;;;;;;;11.90;10.80;;;23.30;35.20;;;;;;5082599;28;20431;-43
2021/04/20 12:38:54;;;;;;;9.20;8.40;;;23.90;34.70;;;;;;5082306;28;20167;-43
2021/04/20 12:41:20;;;;;;;9.70;8.90;;;24.10;34.60;;;;;;5081798;28;20757;-43
2021/04/20 12:43:50;;;;;;;15.37;9.97;;;24.00;34.90;;;;;;5064633;28;20513;-43
2021/04/20 12:46:16;;;;;;;10.00;9.00;;;23.70;34.50;;;;;;5082162;28;20434;-43
2021/04/20 12:48:45;;;;;;;9.20;8.30;;;23.30;35.30;;;;;;5081849;28;20422;-43
2021/04/20 12:51:18;;;;;;;8.93;8.13;;;23.00;34.90;;;;;;5082085;28;20434;-44
2021/04/20 12:53:49;;;;;;;10.93;8.87;;;23.20;35.50;;;;;;5080688;28;20480;-44
2021/04/20 12:56:26;;;;;;;9.90;9.00;;;24.50;34.90;;;;;;5096519;28;20434;-43
2021/04/20 12:58:53;;;;;;;9.03;8.30;;;26.30;33.90;;;;;;5100055;28;20526;-44
2021/04/20 13:01:22;;;;;;;9.73;8.87;;;27.90;32.00;;;;;;5099060;28;20427;-44